Terminal Aerodrome Forecast
Issued by NWS Binghamton, NY

Home | Current Version | Previous Version | Text Only | Print | Product List | Glossary On
Versions: 1 2 3 4 5 6 7 8 9 10 11 12 13 14 15 16 17 18
778
FTUS41 KBGM 260527
TAFSYR
TAF
KSYR 260527Z 2606/2706 24005KT P6SM BKN090
     FM261500 26008KT P6SM BKN050
     FM261800 26010KT P6SM -SHRA BKN040
     FM270000 23005KT P6SM BKN070=

USA.gov is the U.S. government's official web portal to all federal, state and local government web resources and services.